sensor_id;sensor_type;location;lat;lon;timestamp;P1;durP1;ratioP1;P2;durP2;ratioP2
21326;SDS011;10822;51.532;6.770;2023-08-12T00:01:23;6.43;;;4.60;;
21326;SDS011;10822;51.532;6.770;2023-08-12T00:03:50;5.65;;;4.63;;
21326;SDS011;10822;51.532;6.770;2023-08-12T00:06:16;6.05;;;4.70;;
21326;SDS011;10822;51.532;6.770;2023-08-12T00:08:42;6.85;;;4.00;;
21326;SDS011;10822;51.532;6.770;2023-08-12T00:11:08;6.78;;;4.70;;
21326;SDS011;10822;51.532;6.770;2023-08-12T00:13:34;5.80;;;4.32;;
21326;SDS011;10822;51.532;6.770;2023-08-12T00:16:00;8.55;;;6.10;;
21326;SDS011;10822;51.532;6.770;2023-08-12T00:18:26;7.72;;;6.05;;
21326;SDS011;10822;51.532;6.770;2023-08-12T00:20:52;6.50;;;4.65;;
21326;SDS011;10822;51.532;6.770;2023-08-12T00:23:18;9.10;;;6.22;;
21326;SDS011;10822;51.532;6.770;2023-08-12T00:25:44;6.60;;;5.68;;
21326;SDS011;10822;51.532;6.770;2023-08-12T00:28:10;9.75;;;5.80;;
21326;SDS011;10822;51.532;6.770;2023-08-12T00:30:36;7.15;;;6.10;;
21326;SDS011;10822;51.532;6.770;2023-08-12T00:33:02;8.90;;;6.20;;
21326;SDS011;10822;51.532;6.770;2023-08-12T00:35:28;8.27;;;5.82;;
21326;SDS011;10822;51.532;6.770;2023-08-12T00:37:54;9.00;;;6.28;;
21326;SDS011;10822;51.532;6.770;2023-08-12T00:40:20;8.55;;;5.88;;
21326;SDS011;10822;51.532;6.770;2023-08-12T00:42:46;8.23;;;6.22;;
21326;SDS011;10822;51.532;6.770;2023-08-12T00:45:12;11.55;;;8.40;;
21326;SDS011;10822;51.532;6.770;2023-08-12T00:47:38;13.40;;;8.70;;
21326;SDS011;10822;51.532;6.770;2023-08-12T00:50:06;12.00;;;8.68;;
21326;SDS011;10822;51.532;6.770;2023-08-12T00:52:33;12.93;;;9.13;;
21326;SDS011;10822;51.532;6.770;2023-08-12T00:54:59;11.82;;;9.20;;
21326;SDS011;10822;51.532;6.770;2023-08-12T00:57:25;10.68;;;8.70;;
21326;SDS011;10822;51.532;6.770;2023-08-12T00:59:51;14.75;;;10.48;;
21326;SDS011;10822;51.532;6.770;2023-08-12T01:02:18;13.73;;;9.25;;
21326;SDS011;10822;51.532;6.770;2023-08-12T01:04:44;15.00;;;10.50;;
21326;SDS011;10822;51.532;6.770;2023-08-12T01:07:10;14.50;;;9.63;;
21326;SDS011;10822;51.532;6.770;2023-08-12T01:09:37;14.75;;;11.15;;
21326;SDS011;10822;51.532;6.770;2023-08-12T01:15:07;13.88;;;10.00;;
21326;SDS011;10822;51.532;6.770;2023-08-12T01:17:35;17.00;;;10.48;;
21326;SDS011;10822;51.532;6.770;2023-08-12T01:20:03;15.85;;;10.77;;
21326;SDS011;10822;51.532;6.770;2023-08-12T01:22:33;16.83;;;12.10;;
21326;SDS011;10822;51.532;6.770;2023-08-12T01:25:01;15.82;;;10.32;;
21326;SDS011;10822;51.532;6.770;2023-08-12T01:27:27;13.90;;;10.20;;
21326;SDS011;10822;51.532;6.770;2023-08-12T01:29:53;18.20;;;11.82;;
21326;SDS011;10822;51.532;6.770;2023-08-12T01:35:07;17.17;;;11.25;;
21326;SDS011;10822;51.532;6.770;2023-08-12T01:37:32;13.93;;;10.68;;
21326;SDS011;10822;51.532;6.770;2023-08-12T01:40:00;18.02;;;10.88;;
21326;SDS011;10822;51.532;6.770;2023-08-12T01:42:29;13.95;;;9.82;;
21326;SDS011;10822;51.532;6.770;2023-08-12T01:44:56;16.58;;;11.23;;
21326;SDS011;10822;51.532;6.770;2023-08-12T01:47:22;16.67;;;9.90;;
21326;SDS011;10822;51.532;6.770;2023-08-12T01:49:48;15.07;;;10.02;;
21326;SDS011;10822;51.532;6.770;2023-08-12T01:52:14;15.85;;;11.40;;
21326;SDS011;10822;51.532;6.770;2023-08-12T01:54:40;16.48;;;10.80;;
21326;SDS011;10822;51.532;6.770;2023-08-12T01:57:06;14.00;;;10.02;;
21326;SDS011;10822;51.532;6.770;2023-08-12T01:59:37;16.00;;;10.43;;
21326;SDS011;10822;51.532;6.770;2023-08-12T02:02:04;15.07;;;10.30;;
21326;SDS011;10822;51.532;6.770;2023-08-12T02:04:30;15.18;;;10.82;;
21326;SDS011;10822;51.532;6.770;2023-08-12T02:06:56;13.63;;;10.40;;
21326;SDS011;10822;51.532;6.770;2023-08-12T02:09:22;17.55;;;10.13;;
21326;SDS011;10822;51.532;6.770;2023-08-12T02:11:48;15.13;;;10.25;;
21326;SDS011;10822;51.532;6.770;2023-08-12T02:14:15;13.48;;;7.95;;
21326;SDS011;10822;51.532;6.770;2023-08-12T02:16:41;13.65;;;9.32;;
21326;SDS011;10822;51.532;6.770;2023-08-12T02:19:07;12.10;;;8.15;;
21326;SDS011;10822;51.532;6.770;2023-08-12T02:21:33;11.27;;;8.68;;
21326;SDS011;10822;51.532;6.770;2023-08-12T02:23:59;12.57;;;9.27;;
21326;SDS011;10822;51.532;6.770;2023-08-12T02:26:25;10.88;;;7.07;;
21326;SDS011;10822;51.532;6.770;2023-08-12T02:28:51;15.80;;;9.13;;
21326;SDS011;10822;51.532;6.770;2023-08-12T02:31:17;13.32;;;9.35;;
21326;SDS011;10822;51.532;6.770;2023-08-12T02:33:43;14.25;;;9.05;;
21326;SDS011;10822;51.532;6.770;2023-08-12T02:36:09;11.90;;;8.05;;
21326;SDS011;10822;51.532;6.770;2023-08-12T02:38:35;16.27;;;8.98;;
21326;SDS011;10822;51.532;6.770;2023-08-12T02:41:01;11.18;;;8.00;;
21326;SDS011;10822;51.532;6.770;2023-08-12T02:43:27;14.02;;;8.40;;
21326;SDS011;10822;51.532;6.770;2023-08-12T02:45:53;14.18;;;8.57;;
21326;SDS011;10822;51.532;6.770;2023-08-12T02:48:19;14.73;;;9.27;;
21326;SDS011;10822;51.532;6.770;2023-08-12T02:50:45;16.33;;;9.68;;
21326;SDS011;10822;51.532;6.770;2023-08-12T02:53:11;15.15;;;8.00;;
21326;SDS011;10822;51.532;6.770;2023-08-12T02:55:37;13.00;;;8.70;;
21326;SDS011;10822;51.532;6.770;2023-08-12T02:58:03;15.65;;;8.70;;
21326;SDS011;10822;51.532;6.770;2023-08-12T03:00:29;10.95;;;7.55;;
21326;SDS011;10822;51.532;6.770;2023-08-12T03:02:55;12.98;;;8.50;;
21326;SDS011;10822;51.532;6.770;2023-08-12T03:05:22;12.27;;;8.40;;
21326;SDS011;10822;51.532;6.770;2023-08-12T03:07:48;14.50;;;8.77;;
21326;SDS011;10822;51.532;6.770;2023-08-12T03:10:14;11.93;;;7.95;;
21326;SDS011;10822;51.532;6.770;2023-08-12T03:12:40;12.50;;;8.80;;
21326;SDS011;10822;51.532;6.770;2023-08-12T03:15:07;11.13;;;7.40;;
21326;SDS011;10822;51.532;6.770;2023-08-12T03:17:33;13.65;;;8.38;;
21326;SDS011;10822;51.532;6.770;2023-08-12T03:19:59;10.50;;;7.57;;
21326;SDS011;10822;51.532;6.770;2023-08-12T03:22:26;11.00;;;8.18;;
21326;SDS011;10822;51.532;6.770;2023-08-12T03:24:52;13.70;;;8.32;;
21326;SDS011;10822;51.532;6.770;2023-08-12T03:27:19;11.18;;;8.25;;
21326;SDS011;10822;51.532;6.770;2023-08-12T03:29:44;13.93;;;8.05;;
21326;SDS011;10822;51.532;6.770;2023-08-12T03:32:11;13.77;;;8.60;;
21326;SDS011;10822;51.532;6.770;2023-08-12T03:34:37;11.10;;;8.00;;
21326;SDS011;10822;51.532;6.770;2023-08-12T03:37:03;13.18;;;8.85;;
21326;SDS011;10822;51.532;6.770;2023-08-12T03:39:29;18.10;;;9.18;;
21326;SDS011;10822;51.532;6.770;2023-08-12T03:41:55;10.57;;;7.15;;
21326;SDS011;10822;51.532;6.770;2023-08-12T03:44:21;10.80;;;8.13;;
21326;SDS011;10822;51.532;6.770;2023-08-12T03:46:47;13.25;;;9.30;;
21326;SDS011;10822;51.532;6.770;2023-08-12T03:49:13;11.65;;;8.40;;
21326;SDS011;10822;51.532;6.770;2023-08-12T03:51:39;12.65;;;7.35;;
21326;SDS011;10822;51.532;6.770;2023-08-12T03:54:05;10.32;;;8.32;;
21326;SDS011;10822;51.532;6.770;2023-08-12T03:56:31;12.20;;;7.85;;
21326;SDS011;10822;51.532;6.770;2023-08-12T03:58:57;11.75;;;8.30;;
21326;SDS011;10822;51.532;6.770;2023-08-12T04:01:23;9.63;;;7.15;;
21326;SDS011;10822;51.532;6.770;2023-08-12T04:03:50;10.68;;;8.05;;
21326;SDS011;10822;51.532;6.770;2023-08-12T04:06:16;12.48;;;7.90;;
21326;SDS011;10822;51.532;6.770;2023-08-12T04:08:42;13.25;;;8.48;;
21326;SDS011;10822;51.532;6.770;2023-08-12T04:11:08;11.32;;;8.10;;
21326;SDS011;10822;51.532;6.770;2023-08-12T04:13:34;14.27;;;10.95;;
21326;SDS011;10822;51.532;6.770;2023-08-12T04:16:00;19.15;;;12.13;;
21326;SDS011;10822;51.532;6.770;2023-08-12T04:18:26;23.60;;;13.55;;
21326;SDS011;10822;51.532;6.770;2023-08-12T04:20:53;21.35;;;13.73;;
21326;SDS011;10822;51.532;6.770;2023-08-12T04:23:19;22.13;;;14.07;;
21326;SDS011;10822;51.532;6.770;2023-08-12T04:25:48;24.63;;;14.20;;
21326;SDS011;10822;51.532;6.770;2023-08-12T04:28:15;19.48;;;13.52;;
21326;SDS011;10822;51.532;6.770;2023-08-12T04:30:45;20.85;;;14.52;;
21326;SDS011;10822;51.532;6.770;2023-08-12T04:33:12;22.27;;;15.95;;
21326;SDS011;10822;51.532;6.770;2023-08-12T04:35:38;27.67;;;15.23;;
21326;SDS011;10822;51.532;6.770;2023-08-12T04:38:04;24.70;;;14.07;;
21326;SDS011;10822;51.532;6.770;2023-08-12T04:40:31;22.80;;;14.20;;
21326;SDS011;10822;51.532;6.770;2023-08-12T04:42:58;20.95;;;14.90;;
21326;SDS011;10822;51.532;6.770;2023-08-12T04:45:24;23.38;;;15.10;;
21326;SDS011;10822;51.532;6.770;2023-08-12T04:47:50;23.58;;;15.65;;
21326;SDS011;10822;51.532;6.770;2023-08-12T04:50:16;25.90;;;14.95;;
21326;SDS011;10822;51.532;6.770;2023-08-12T04:52:42;24.10;;;15.02;;
21326;SDS011;10822;51.532;6.770;2023-08-12T04:55:08;20.50;;;13.82;;
21326;SDS011;10822;51.532;6.770;2023-08-12T04:57:35;26.70;;;15.95;;
21326;SDS011;10822;51.532;6.770;2023-08-12T05:00:01;23.50;;;15.82;;
21326;SDS011;10822;51.532;6.770;2023-08-12T05:02:28;22.70;;;15.52;;
21326;SDS011;10822;51.532;6.770;2023-08-12T05:04:54;23.50;;;15.63;;
21326;SDS011;10822;51.532;6.770;2023-08-12T05:07:20;26.00;;;15.77;;
21326;SDS011;10822;51.532;6.770;2023-08-12T05:09:46;24.27;;;13.85;;
21326;SDS011;10822;51.532;6.770;2023-08-12T05:12:12;20.92;;;14.82;;
21326;SDS011;10822;51.532;6.770;2023-08-12T05:14:39;20.48;;;12.43;;
21326;SDS011;10822;51.532;6.770;2023-08-12T05:17:05;21.17;;;13.98;;
21326;SDS011;10822;51.532;6.770;2023-08-12T05:19:31;20.48;;;12.98;;
21326;SDS011;10822;51.532;6.770;2023-08-12T05:21:57;19.55;;;13.77;;
21326;SDS011;10822;51.532;6.770;2023-08-12T05:24:23;18.42;;;13.40;;
21326;SDS011;10822;51.532;6.770;2023-08-12T05:26:49;18.33;;;12.30;;
21326;SDS011;10822;51.532;6.770;2023-08-12T05:29:15;19.20;;;12.15;;
21326;SDS011;10822;51.532;6.770;2023-08-12T05:31:42;21.63;;;12.75;;
21326;SDS011;10822;51.532;6.770;2023-08-12T05:34:08;18.90;;;12.30;;
21326;SDS011;10822;51.532;6.770;2023-08-12T05:36:34;16.50;;;11.20;;
21326;SDS011;10822;51.532;6.770;2023-08-12T05:39:01;16.13;;;10.90;;
21326;SDS011;10822;51.532;6.770;2023-08-12T05:41:28;13.82;;;9.85;;
21326;SDS011;10822;51.532;6.770;2023-08-12T05:43:54;16.95;;;10.27;;
21326;SDS011;10822;51.532;6.770;2023-08-12T05:46:20;15.20;;;11.10;;
21326;SDS011;10822;51.532;6.770;2023-08-12T05:48:46;16.48;;;11.38;;
21326;SDS011;10822;51.532;6.770;2023-08-12T05:51:12;16.40;;;10.63;;
21326;SDS011;10822;51.532;6.770;2023-08-12T05:53:38;14.45;;;10.40;;
21326;SDS011;10822;51.532;6.770;2023-08-12T05:56:04;13.60;;;10.48;;
21326;SDS011;10822;51.532;6.770;2023-08-12T05:58:30;14.48;;;10.10;;
21326;SDS011;10822;51.532;6.770;2023-08-12T06:00:56;12.82;;;9.00;;
21326;SDS011;10822;51.532;6.770;2023-08-12T06:03:22;15.05;;;9.45;;
21326;SDS011;10822;51.532;6.770;2023-08-12T06:05:48;13.13;;;9.38;;
21326;SDS011;10822;51.532;6.770;2023-08-12T06:08:14;16.58;;;9.82;;
21326;SDS011;10822;51.532;6.770;2023-08-12T06:10:40;14.02;;;10.07;;
21326;SDS011;10822;51.532;6.770;2023-08-12T06:13:07;12.52;;;9.30;;
21326;SDS011;10822;51.532;6.770;2023-08-12T06:15:33;14.77;;;10.00;;
21326;SDS011;10822;51.532;6.770;2023-08-12T06:17:59;14.25;;;9.15;;
21326;SDS011;10822;51.532;6.770;2023-08-12T06:20:25;10.25;;;8.45;;
21326;SDS011;10822;51.532;6.770;2023-08-12T06:22:52;13.23;;;9.32;;
21326;SDS011;10822;51.532;6.770;2023-08-12T06:25:18;16.58;;;10.15;;
21326;SDS011;10822;51.532;6.770;2023-08-12T06:27:44;14.07;;;10.18;;
21326;SDS011;10822;51.532;6.770;2023-08-12T06:30:10;13.73;;;10.02;;
21326;SDS011;10822;51.532;6.770;2023-08-12T06:32:36;13.55;;;9.68;;
21326;SDS011;10822;51.532;6.770;2023-08-12T06:35:03;13.13;;;10.05;;
21326;SDS011;10822;51.532;6.770;2023-08-12T06:37:29;12.48;;;9.77;;
21326;SDS011;10822;51.532;6.770;2023-08-12T06:39:55;12.93;;;9.80;;
21326;SDS011;10822;51.532;6.770;2023-08-12T06:42:21;13.88;;;9.68;;
21326;SDS011;10822;51.532;6.770;2023-08-12T06:44:54;11.82;;;9.02;;
21326;SDS011;10822;51.532;6.770;2023-08-12T06:47:20;13.05;;;9.25;;
21326;SDS011;10822;51.532;6.770;2023-08-12T06:49:46;12.10;;;8.70;;
21326;SDS011;10822;51.532;6.770;2023-08-12T06:52:12;14.77;;;9.52;;
21326;SDS011;10822;51.532;6.770;2023-08-12T06:54:38;11.30;;;9.10;;
21326;SDS011;10822;51.532;6.770;2023-08-12T06:57:04;12.20;;;9.20;;
21326;SDS011;10822;51.532;6.770;2023-08-12T06:59:30;12.30;;;9.10;;
21326;SDS011;10822;51.532;6.770;2023-08-12T07:01:56;12.45;;;8.20;;
21326;SDS011;10822;51.532;6.770;2023-08-12T07:04:22;13.15;;;7.85;;
21326;SDS011;10822;51.532;6.770;2023-08-12T07:06:48;12.23;;;8.65;;
21326;SDS011;10822;51.532;6.770;2023-08-12T07:09:14;11.48;;;8.38;;
21326;SDS011;10822;51.532;6.770;2023-08-12T07:11:40;11.88;;;8.75;;
21326;SDS011;10822;51.532;6.770;2023-08-12T07:14:06;11.98;;;8.80;;
21326;SDS011;10822;51.532;6.770;2023-08-12T07:16:33;9.63;;;8.55;;
21326;SDS011;10822;51.532;6.770;2023-08-12T07:18:59;11.95;;;8.88;;
21326;SDS011;10822;51.532;6.770;2023-08-12T07:21:25;10.07;;;8.27;;
21326;SDS011;10822;51.532;6.770;2023-08-12T07:23:51;10.52;;;9.25;;
21326;SDS011;10822;51.532;6.770;2023-08-12T07:26:17;10.80;;;7.75;;
21326;SDS011;10822;51.532;6.770;2023-08-12T07:28:42;14.63;;;8.65;;
21326;SDS011;10822;51.532;6.770;2023-08-12T07:31:09;10.57;;;8.95;;
21326;SDS011;10822;51.532;6.770;2023-08-12T07:33:35;12.32;;;9.63;;
21326;SDS011;10822;51.532;6.770;2023-08-12T07:36:01;12.50;;;10.15;;
21326;SDS011;10822;51.532;6.770;2023-08-12T07:38:27;14.05;;;9.82;;
21326;SDS011;10822;51.532;6.770;2023-08-12T07:40:53;11.55;;;9.23;;
21326;SDS011;10822;51.532;6.770;2023-08-12T07:43:20;12.60;;;9.82;;
21326;SDS011;10822;51.532;6.770;2023-08-12T07:45:50;11.98;;;9.50;;
21326;SDS011;10822;51.532;6.770;2023-08-12T07:48:16;10.02;;;8.68;;
21326;SDS011;10822;51.532;6.770;2023-08-12T07:50:42;12.80;;;9.65;;
21326;SDS011;10822;51.532;6.770;2023-08-12T07:53:08;12.88;;;9.35;;
21326;SDS011;10822;51.532;6.770;2023-08-12T07:55:34;10.02;;;9.02;;
21326;SDS011;10822;51.532;6.770;2023-08-12T07:58:00;12.05;;;8.45;;
21326;SDS011;10822;51.532;6.770;2023-08-12T08:00:26;10.07;;;8.20;;
21326;SDS011;10822;51.532;6.770;2023-08-12T08:02:52;11.25;;;8.20;;
21326;SDS011;10822;51.532;6.770;2023-08-12T08:05:18;12.30;;;8.88;;
21326;SDS011;10822;51.532;6.770;2023-08-12T08:07:44;9.75;;;7.78;;
21326;SDS011;10822;51.532;6.770;2023-08-12T08:10:10;10.00;;;8.43;;
21326;SDS011;10822;51.532;6.770;2023-08-12T08:12:36;10.63;;;8.45;;
21326;SDS011;10822;51.532;6.770;2023-08-12T08:15:02;10.65;;;9.07;;
21326;SDS011;10822;51.532;6.770;2023-08-12T08:17:28;11.73;;;8.93;;
21326;SDS011;10822;51.532;6.770;2023-08-12T08:19:54;9.23;;;7.25;;
21326;SDS011;10822;51.532;6.770;2023-08-12T08:22:20;10.23;;;8.98;;
21326;SDS011;10822;51.532;6.770;2023-08-12T08:24:46;11.38;;;7.68;;
21326;SDS011;10822;51.532;6.770;2023-08-12T08:27:12;9.40;;;7.22;;
21326;SDS011;10822;51.532;6.770;2023-08-12T08:29:39;7.40;;;6.43;;
21326;SDS011;10822;51.532;6.770;2023-08-12T08:32:05;7.47;;;6.40;;
21326;SDS011;10822;51.532;6.770;2023-08-12T08:34:31;9.57;;;6.45;;
21326;SDS011;10822;51.532;6.770;2023-08-12T08:36:57;12.27;;;6.07;;
21326;SDS011;10822;51.532;6.770;2023-08-12T08:39:23;5.90;;;4.97;;
21326;SDS011;10822;51.532;6.770;2023-08-12T08:41:49;7.82;;;5.00;;
21326;SDS011;10822;51.532;6.770;2023-08-12T08:44:16;8.27;;;4.97;;
21326;SDS011;10822;51.532;6.770;2023-08-12T08:46:43;5.50;;;4.05;;
21326;SDS011;10822;51.532;6.770;2023-08-12T08:49:09;5.57;;;4.20;;
21326;SDS011;10822;51.532;6.770;2023-08-12T08:51:36;5.57;;;3.90;;
21326;SDS011;10822;51.532;6.770;2023-08-12T08:54:02;6.35;;;4.13;;
21326;SDS011;10822;51.532;6.770;2023-08-12T08:56:32;6.40;;;4.30;;
21326;SDS011;10822;51.532;6.770;2023-08-12T08:58:58;5.07;;;3.70;;
21326;SDS011;10822;51.532;6.770;2023-08-12T09:01:24;5.57;;;3.92;;
21326;SDS011;10822;51.532;6.770;2023-08-12T09:03:51;5.57;;;4.45;;
21326;SDS011;10822;51.532;6.770;2023-08-12T09:06:18;5.45;;;4.07;;
21326;SDS011;10822;51.532;6.770;2023-08-12T09:08:45;5.00;;;4.13;;
21326;SDS011;10822;51.532;6.770;2023-08-12T09:11:14;8.48;;;4.30;;
21326;SDS011;10822;51.532;6.770;2023-08-12T09:13:41;5.72;;;4.35;;
21326;SDS011;10822;51.532;6.770;2023-08-12T09:16:07;5.10;;;4.60;;
21326;SDS011;10822;51.532;6.770;2023-08-12T09:18:34;7.82;;;4.40;;
21326;SDS011;10822;51.532;6.770;2023-08-12T09:21:00;5.95;;;4.82;;
21326;SDS011;10822;51.532;6.770;2023-08-12T09:23:26;6.30;;;4.40;;
21326;SDS011;10822;51.532;6.770;2023-08-12T09:25:52;6.18;;;4.70;;
21326;SDS011;10822;51.532;6.770;2023-08-12T09:28:18;5.82;;;4.32;;
21326;SDS011;10822;51.532;6.770;2023-08-12T09:30:49;5.03;;;3.67;;
21326;SDS011;10822;51.532;6.770;2023-08-12T09:33:23;7.45;;;4.68;;
21326;SDS011;10822;51.532;6.770;2023-08-12T09:35:50;8.02;;;4.32;;
21326;SDS011;10822;51.532;6.770;2023-08-12T09:38:16;7.35;;;4.45;;
21326;SDS011;10822;51.532;6.770;2023-08-12T09:40:42;6.38;;;4.60;;
21326;SDS011;10822;51.532;6.770;2023-08-12T09:43:09;6.72;;;3.50;;
21326;SDS011;10822;51.532;6.770;2023-08-12T09:45:36;5.70;;;3.13;;
21326;SDS011;10822;51.532;6.770;2023-08-12T09:48:02;3.60;;;2.83;;
21326;SDS011;10822;51.532;6.770;2023-08-12T09:50:29;4.45;;;3.03;;
21326;SDS011;10822;51.532;6.770;2023-08-12T09:52:55;4.10;;;2.90;;
21326;SDS011;10822;51.532;6.770;2023-08-12T09:55:22;4.05;;;3.28;;
21326;SDS011;10822;51.532;6.770;2023-08-12T09:57:52;4.85;;;4.10;;
21326;SDS011;10822;51.532;6.770;2023-08-12T10:00:19;4.78;;;3.20;;
21326;SDS011;10822;51.532;6.770;2023-08-12T10:02:46;6.63;;;3.60;;
21326;SDS011;10822;51.532;6.770;2023-08-12T10:05:14;3.50;;;3.20;;
21326;SDS011;10822;51.532;6.770;2023-08-12T10:07:42;6.97;;;4.00;;
21326;SDS011;10822;51.532;6.770;2023-08-12T10:10:10;5.15;;;4.65;;
21326;SDS011;10822;51.532;6.770;2023-08-12T10:12:37;5.47;;;3.42;;
21326;SDS011;10822;51.532;6.770;2023-08-12T10:15:05;3.92;;;3.20;;
21326;SDS011;10822;51.532;6.770;2023-08-12T10:17:33;5.32;;;3.90;;
21326;SDS011;10822;51.532;6.770;2023-08-12T10:20:00;5.70;;;4.05;;
21326;SDS011;10822;51.532;6.770;2023-08-12T10:22:28;7.85;;;4.32;;
21326;SDS011;10822;51.532;6.770;2023-08-12T10:24:55;5.78;;;4.00;;
21326;SDS011;10822;51.532;6.770;2023-08-12T10:27:22;6.55;;;4.00;;
21326;SDS011;10822;51.532;6.770;2023-08-12T10:29:48;5.32;;;3.42;;
21326;SDS011;10822;51.532;6.770;2023-08-12T10:32:14;6.53;;;3.80;;
21326;SDS011;10822;51.532;6.770;2023-08-12T10:34:41;3.25;;;2.72;;
21326;SDS011;10822;51.532;6.770;2023-08-12T10:37:07;2.60;;;2.15;;
21326;SDS011;10822;51.532;6.770;2023-08-12T10:39:35;3.92;;;2.25;;
21326;SDS011;10822;51.532;6.770;2023-08-12T10:42:02;4.20;;;2.72;;
21326;SDS011;10822;51.532;6.770;2023-08-12T10:44:49;4.43;;;3.00;;
21326;SDS011;10822;51.532;6.770;2023-08-12T10:47:19;4.82;;;2.60;;
21326;SDS011;10822;51.532;6.770;2023-08-12T10:49:49;3.20;;;2.30;;
21326;SDS011;10822;51.532;6.770;2023-08-12T10:52:28;3.33;;;2.28;;
21326;SDS011;10822;51.532;6.770;2023-08-12T10:54:54;3.03;;;1.98;;
21326;SDS011;10822;51.532;6.770;2023-08-12T10:57:36;2.90;;;2.15;;
21326;SDS011;10822;51.532;6.770;2023-08-12T11:00:03;2.92;;;2.13;;
21326;SDS011;10822;51.532;6.770;2023-08-12T11:07:28;3.03;;;2.38;;
21326;SDS011;10822;51.532;6.770;2023-08-12T11:09:56;6.85;;;2.80;;
21326;SDS011;10822;51.532;6.770;2023-08-12T11:12:28;3.90;;;2.72;;
21326;SDS011;10822;51.532;6.770;2023-08-12T11:14:54;4.35;;;2.63;;
21326;SDS011;10822;51.532;6.770;2023-08-12T11:17:56;3.00;;;2.20;;
21326;SDS011;10822;51.532;6.770;2023-08-12T11:20:15;3.10;;;2.20;;
21326;SDS011;10822;51.532;6.770;2023-08-12T11:22:41;3.65;;;2.22;;
21326;SDS011;10822;51.532;6.770;2023-08-12T11:25:08;3.03;;;2.30;;
21326;SDS011;10822;51.532;6.770;2023-08-12T11:30:04;2.42;;;2.00;;
21326;SDS011;10822;51.532;6.770;2023-08-12T11:32:30;2.35;;;1.92;;
21326;SDS011;10822;51.532;6.770;2023-08-12T11:34:57;1.83;;;1.73;;
21326;SDS011;10822;51.532;6.770;2023-08-12T11:37:23;3.15;;;2.20;;
21326;SDS011;10822;51.532;6.770;2023-08-12T11:39:51;2.63;;;2.20;;
21326;SDS011;10822;51.532;6.770;2023-08-12T11:42:17;3.65;;;3.00;;
21326;SDS011;10822;51.532;6.770;2023-08-12T11:44:43;3.35;;;2.83;;
21326;SDS011;10822;51.532;6.770;2023-08-12T11:47:09;3.45;;;2.78;;
21326;SDS011;10822;51.532;6.770;2023-08-12T11:49:35;4.03;;;3.03;;
21326;SDS011;10822;51.532;6.770;2023-08-12T11:52:02;3.65;;;3.20;;
21326;SDS011;10822;51.532;6.770;2023-08-12T11:54:28;3.42;;;3.13;;
21326;SDS011;10822;51.532;6.770;2023-08-12T11:56:54;3.65;;;3.35;;
21326;SDS011;10822;51.532;6.770;2023-08-12T11:59:22;3.85;;;3.25;;
21326;SDS011;10822;51.532;6.770;2023-08-12T12:01:51;3.95;;;3.65;;
21326;SDS011;10822;51.532;6.770;2023-08-12T12:04:17;5.13;;;4.00;;
21326;SDS011;10822;51.532;6.770;2023-08-12T12:06:45;4.63;;;4.15;;
21326;SDS011;10822;51.532;6.770;2023-08-12T12:09:11;5.15;;;4.63;;
21326;SDS011;10822;51.532;6.770;2023-08-12T12:11:39;5.82;;;5.07;;
21326;SDS011;10822;51.532;6.770;2023-08-12T12:14:06;5.30;;;4.80;;
21326;SDS011;10822;51.532;6.770;2023-08-12T12:16:42;5.30;;;4.80;;
21326;SDS011;10822;51.532;6.770;2023-08-12T12:19:09;6.50;;;5.90;;
21326;SDS011;10822;51.532;6.770;2023-08-12T12:21:39;6.78;;;6.10;;
21326;SDS011;10822;51.532;6.770;2023-08-12T12:24:06;8.90;;;6.80;;
21326;SDS011;10822;51.532;6.770;2023-08-12T12:26:32;7.68;;;6.45;;
21326;SDS011;10822;51.532;6.770;2023-08-12T12:28:58;9.18;;;6.57;;
21326;SDS011;10822;51.532;6.770;2023-08-12T12:31:24;8.52;;;7.72;;
21326;SDS011;10822;51.532;6.770;2023-08-12T12:33:50;9.10;;;7.90;;
21326;SDS011;10822;51.532;6.770;2023-08-12T12:36:16;8.45;;;7.65;;
21326;SDS011;10822;51.532;6.770;2023-08-12T12:38:42;7.47;;;6.78;;
21326;SDS011;10822;51.532;6.770;2023-08-12T12:41:09;8.07;;;7.28;;
21326;SDS011;10822;51.532;6.770;2023-08-12T12:43:35;7.32;;;6.63;;
21326;SDS011;10822;51.532;6.770;2023-08-12T12:46:01;8.15;;;6.75;;
21326;SDS011;10822;51.532;6.770;2023-08-12T12:48:27;8.07;;;7.28;;
21326;SDS011;10822;51.532;6.770;2023-08-12T12:50:53;9.77;;;8.30;;
21326;SDS011;10822;51.532;6.770;2023-08-12T12:53:19;10.43;;;8.18;;
21326;SDS011;10822;51.532;6.770;2023-08-12T12:55:45;7.50;;;6.70;;
21326;SDS011;10822;51.532;6.770;2023-08-12T12:58:11;7.03;;;6.32;;
21326;SDS011;10822;51.532;6.770;2023-08-12T13:00:37;8.43;;;7.63;;
21326;SDS011;10822;51.532;6.770;2023-08-12T13:03:03;9.18;;;8.05;;
21326;SDS011;10822;51.532;6.770;2023-08-12T13:05:29;8.30;;;7.40;;
21326;SDS011;10822;51.532;6.770;2023-08-12T13:07:55;7.80;;;7.00;;
21326;SDS011;10822;51.532;6.770;2023-08-12T13:10:21;6.43;;;5.82;;
21326;SDS011;10822;51.532;6.770;2023-08-12T13:12:47;6.40;;;5.65;;
21326;SDS011;10822;51.532;6.770;2023-08-12T13:15:13;6.13;;;5.57;;
21326;SDS011;10822;51.532;6.770;2023-08-12T13:17:39;5.57;;;5.07;;
21326;SDS011;10822;51.532;6.770;2023-08-12T13:20:05;5.97;;;5.03;;
21326;SDS011;10822;51.532;6.770;2023-08-12T13:22:31;7.10;;;5.82;;
21326;SDS011;10822;51.532;6.770;2023-08-12T13:24:57;6.20;;;5.60;;
21326;SDS011;10822;51.532;6.770;2023-08-12T13:27:23;5.78;;;5.28;;
21326;SDS011;10822;51.532;6.770;2023-08-12T13:29:49;5.78;;;5.18;;
21326;SDS011;10822;51.532;6.770;2023-08-12T13:32:15;4.80;;;4.30;;
21326;SDS011;10822;51.532;6.770;2023-08-12T13:34:41;4.65;;;4.25;;
21326;SDS011;10822;51.532;6.770;2023-08-12T13:37:11;4.30;;;3.90;;
21326;SDS011;10822;51.532;6.770;2023-08-12T13:39:37;4.45;;;3.95;;
21326;SDS011;10822;51.532;6.770;2023-08-12T13:42:03;5.75;;;4.35;;
21326;SDS011;10822;51.532;6.770;2023-08-12T13:44:29;3.85;;;2.92;;
21326;SDS011;10822;51.532;6.770;2023-08-12T13:46:55;3.72;;;2.60;;
21326;SDS011;10822;51.532;6.770;2023-08-12T13:49:21;2.30;;;2.10;;
21326;SDS011;10822;51.532;6.770;2023-08-12T13:51:47;4.05;;;2.40;;
21326;SDS011;10822;51.532;6.770;2023-08-12T13:54:13;2.50;;;2.30;;
21326;SDS011;10822;51.532;6.770;2023-08-12T13:56:39;2.33;;;2.13;;
21326;SDS011;10822;51.532;6.770;2023-08-12T13:59:05;3.70;;;2.00;;
21326;SDS011;10822;51.532;6.770;2023-08-12T14:01:31;2.75;;;2.20;;
21326;SDS011;10822;51.532;6.770;2023-08-12T14:03:57;2.38;;;1.67;;
21326;SDS011;10822;51.532;6.770;2023-08-12T14:06:23;1.77;;;1.67;;
21326;SDS011;10822;51.532;6.770;2023-08-12T14:08:49;2.20;;;1.55;;
21326;SDS011;10822;51.532;6.770;2023-08-12T14:11:15;2.05;;;1.70;;
21326;SDS011;10822;51.532;6.770;2023-08-12T14:13:41;2.25;;;1.80;;
21326;SDS011;10822;51.532;6.770;2023-08-12T14:16:07;2.85;;;1.73;;
21326;SDS011;10822;51.532;6.770;2023-08-12T14:18:33;2.15;;;1.67;;
21326;SDS011;10822;51.532;6.770;2023-08-12T14:20:59;2.33;;;1.67;;
21326;SDS011;10822;51.532;6.770;2023-08-12T14:23:25;2.55;;;1.73;;
21326;SDS011;10822;51.532;6.770;2023-08-12T14:25:51;3.40;;;1.80;;
21326;SDS011;10822;51.532;6.770;2023-08-12T14:28:17;1.70;;;1.40;;
21326;SDS011;10822;51.532;6.770;2023-08-12T14:30:43;3.03;;;1.80;;
21326;SDS011;10822;51.532;6.770;2023-08-12T14:33:09;2.33;;;1.40;;
21326;SDS011;10822;51.532;6.770;2023-08-12T14:35:35;1.77;;;1.60;;
21326;SDS011;10822;51.532;6.770;2023-08-12T14:38:01;1.83;;;1.30;;
21326;SDS011;10822;51.532;6.770;2023-08-12T14:40:27;2.60;;;1.40;;
21326;SDS011;10822;51.532;6.770;2023-08-12T14:42:53;3.13;;;1.40;;
21326;SDS011;10822;51.532;6.770;2023-08-12T14:45:19;3.13;;;1.05;;
21326;SDS011;10822;51.532;6.770;2023-08-12T14:47:45;3.05;;;1.23;;